createdAt,value
2023-01-04T00:01:15.399Z,3.60
2023-01-04T00:03:40.675Z,3.60
2023-01-04T00:06:07.266Z,3.50
2023-01-04T00:08:31.647Z,3.50
2023-01-04T00:10:55.147Z,3.50
2023-01-04T00:13:18.727Z,3.50
2023-01-04T00:15:42.408Z,3.40
2023-01-04T00:18:06.246Z,3.40
2023-01-04T00:20:31.219Z,3.40
2023-01-04T00:22:54.868Z,3.40
2023-01-04T00:25:18.504Z,3.30
2023-01-04T00:27:42.313Z,3.30
2023-01-04T00:30:07.011Z,3.30
2023-01-04T00:32:30.646Z,3.30
2023-01-04T00:34:54.148Z,3.30
2023-01-04T00:37:19.121Z,3.20
2023-01-04T00:39:42.641Z,3.20
2023-01-04T00:42:06.455Z,3.20
2023-01-04T00:44:30.689Z,3.20
2023-01-04T00:46:54.437Z,3.20
2023-01-04T00:49:17.972Z,3.20
2023-01-04T00:51:43.438Z,3.20
2023-01-04T00:54:14.359Z,3.20
2023-01-04T00:56:37.929Z,3.30
2023-01-04T00:59:03.857Z,3.30
2023-01-04T01:01:28.771Z,3.40
2023-01-04T01:03:55.160Z,3.40
2023-01-04T01:06:19.561Z,3.50
2023-01-04T01:08:43.072Z,3.50
2023-01-04T01:11:10.838Z,3.50
2023-01-04T01:13:35.152Z,3.60
2023-01-04T01:16:04.251Z,3.60
2023-01-04T01:18:27.824Z,3.70
2023-01-04T01:20:51.373Z,3.70
2023-01-04T01:23:16.983Z,3.70
2023-01-04T01:25:41.106Z,3.80
2023-01-04T01:28:06.428Z,3.80
2023-01-04T01:30:30.026Z,3.90
2023-01-04T01:32:53.597Z,3.90
2023-01-04T01:35:17.898Z,3.90
2023-01-04T01:37:41.443Z,4.00
2023-01-04T01:40:05.895Z,4.00
2023-01-04T01:42:30.525Z,4.00
2023-01-04T01:45:10.871Z,4.10
2023-01-04T01:47:42.190Z,4.10
2023-01-04T01:50:10.350Z,4.10
2023-01-04T01:52:37.752Z,4.10
2023-01-04T01:55:05.530Z,4.20
2023-01-04T01:57:33.669Z,4.10
2023-01-04T02:00:02.435Z,4.10
2023-01-04T02:02:37.352Z,4.10
2023-01-04T02:05:03.842Z,4.10
2023-01-04T02:07:29.515Z,4.10
2023-01-04T02:09:53.511Z,4.10
2023-01-04T02:12:17.032Z,4.10
2023-01-04T02:14:41.975Z,4.00
2023-01-04T02:17:15.530Z,4.10
2023-01-04T02:20:25.669Z,4.00
2023-01-04T02:23:46.231Z,4.00
2023-01-04T02:27:02.109Z,4.00
2023-01-04T02:30:17.137Z,4.00
2023-01-04T02:33:12.008Z,4.00
2023-01-04T02:35:45.267Z,3.90
2023-01-04T02:38:23.578Z,3.90
2023-01-04T02:40:57.169Z,3.90
2023-01-04T02:43:46.163Z,3.90
2023-01-04T02:46:16.830Z,3.90
2023-01-04T02:49:00.406Z,3.90
2023-01-04T02:51:32.393Z,3.90
2023-01-04T02:53:56.363Z,3.90
2023-01-04T02:56:35.641Z,3.90
2023-01-04T02:59:34.847Z,3.90
2023-01-04T03:02:33.081Z,3.90
2023-01-04T03:05:24.871Z,3.90
2023-01-04T03:07:56.140Z,3.90
2023-01-04T03:10:29.514Z,4.00
2023-01-04T03:13:05.926Z,4.00
2023-01-04T03:15:34.993Z,4.00
2023-01-04T03:18:02.288Z,4.00
2023-01-04T03:20:31.974Z,4.00
2023-01-04T03:23:16.997Z,4.00
2023-01-04T03:26:03.094Z,4.00
2023-01-04T03:28:48.706Z,4.00
2023-01-04T03:31:34.743Z,4.10
2023-01-04T03:34:16.553Z,4.10
2023-01-04T03:36:56.160Z,4.00
2023-01-04T03:39:48.340Z,4.00
2023-01-04T03:42:37.667Z,4.10
2023-01-04T03:45:30.224Z,4.10
2023-01-04T03:48:21.116Z,4.10
2023-01-04T03:50:50.527Z,4.10
2023-01-04T03:53:16.183Z,4.10
2023-01-04T03:55:42.386Z,4.10
2023-01-04T03:58:05.941Z,4.10
2023-01-04T04:00:29.830Z,4.10
2023-01-04T04:02:53.439Z,4.10
2023-01-04T04:05:38.439Z,4.10
2023-01-04T04:08:19.464Z,4.10
2023-01-04T04:10:44.446Z,4.10
2023-01-04T04:13:07.957Z,4.10
2023-01-04T04:15:31.706Z,4.10
2023-01-04T04:17:55.239Z,4.20
2023-01-04T04:20:19.138Z,4.20
2023-01-04T04:22:43.496Z,4.20
2023-01-04T04:25:08.204Z,4.20
2023-01-04T04:27:33.185Z,4.20
2023-01-04T04:29:56.745Z,4.20
2023-01-04T04:32:20.269Z,4.20
2023-01-04T04:34:43.928Z,4.20
2023-01-04T04:37:07.468Z,4.20
2023-01-04T04:39:31.080Z,4.20
2023-01-04T04:41:53.635Z,4.20
2023-01-04T04:44:20.870Z,4.30
2023-01-04T04:46:45.487Z,4.30
2023-01-04T04:49:10.235Z,4.30
2023-01-04T04:51:34.364Z,4.30
2023-01-04T04:53:57.974Z,4.40
2023-01-04T04:56:21.523Z,4.40
2023-01-04T04:58:45.221Z,4.50
2023-01-04T05:01:10.666Z,4.50
2023-01-04T05:03:34.543Z,4.60
2023-01-04T05:05:58.246Z,4.60
2023-01-04T05:08:21.840Z,4.60
2023-01-04T05:10:45.352Z,4.60
2023-01-04T05:13:10.779Z,4.70
2023-01-04T05:15:36.916Z,4.70
2023-01-04T05:18:02.116Z,4.70
2023-01-04T05:20:25.860Z,4.80
2023-01-04T05:22:49.504Z,4.80
2023-01-04T05:25:13.005Z,4.90
2023-01-04T05:27:36.635Z,4.90
2023-01-04T05:30:17.297Z,5.00
2023-01-04T05:32:40.932Z,5.00
2023-01-04T05:35:06.685Z,5.10
2023-01-04T05:37:30.265Z,5.10
2023-01-04T05:39:53.797Z,5.10
2023-01-04T05:42:26.334Z,5.10
2023-01-04T05:44:49.921Z,5.20
2023-01-04T05:47:15.349Z,5.20
2023-01-04T05:49:39.084Z,5.20
2023-01-04T05:52:03.992Z,5.30
2023-01-04T05:54:27.569Z,5.40
2023-01-04T05:56:51.087Z,5.40
2023-01-04T05:59:15.067Z,5.40
2023-01-04T06:01:38.599Z,5.40
2023-01-04T06:04:02.275Z,5.40
2023-01-04T06:06:25.850Z,5.40
2023-01-04T06:08:50.799Z,5.40
2023-01-04T06:11:14.289Z,5.40
2023-01-04T06:13:37.879Z,5.40
2023-01-04T06:16:01.380Z,5.50
2023-01-04T06:18:24.975Z,5.50
2023-01-04T06:20:48.491Z,5.50
2023-01-04T06:23:12.089Z,5.50
2023-01-04T06:25:37.040Z,5.50
2023-01-04T06:28:00.661Z,5.50
2023-01-04T06:30:24.143Z,5.50
2023-01-04T06:32:47.716Z,5.60
2023-01-04T06:35:11.410Z,5.60
2023-01-04T06:37:35.710Z,5.60
2023-01-04T06:39:59.231Z,5.60
2023-01-04T06:42:41.689Z,5.60
2023-01-04T06:45:06.263Z,5.60
2023-01-04T06:47:29.821Z,5.70
2023-01-04T06:49:53.707Z,5.70
2023-01-04T06:52:17.255Z,5.70
2023-01-04T06:54:40.875Z,5.70
2023-01-04T06:57:04.512Z,5.80
2023-01-04T06:59:29.468Z,5.80
2023-01-04T07:01:53.146Z,5.80
2023-01-04T07:04:16.866Z,5.80
2023-01-04T07:06:40.462Z,5.90
2023-01-04T07:09:03.996Z,6.00
2023-01-04T07:11:27.597Z,6.00
2023-01-04T07:13:52.819Z,6.00
2023-01-04T07:16:17.892Z,6.00
2023-01-04T07:18:41.608Z,6.10
2023-01-04T07:21:06.114Z,6.10
2023-01-04T07:23:29.711Z,6.10
2023-01-04T07:25:53.308Z,6.10
2023-01-04T07:28:37.965Z,6.10
2023-01-04T07:31:06.756Z,6.20
2023-01-04T07:33:31.703Z,6.20
2023-01-04T07:35:55.316Z,6.10
2023-01-04T07:38:18.838Z,6.20
2023-01-04T07:40:56.293Z,6.20
2023-01-04T07:43:27.514Z,6.20
2023-01-04T07:45:51.693Z,6.20
2023-01-04T07:48:15.222Z,6.20
2023-01-04T07:50:40.399Z,6.20
2023-01-04T07:53:03.961Z,6.20
2023-01-04T07:55:27.567Z,6.20
2023-01-04T07:57:51.073Z,6.20
2023-01-04T08:00:15.918Z,6.30
2023-01-04T08:02:39.707Z,6.30
2023-01-04T08:05:03.460Z,6.30
2023-01-04T08:07:28.642Z,6.30
2023-01-04T08:09:52.217Z,6.30
2023-01-04T08:12:15.711Z,6.30
2023-01-04T08:14:39.303Z,6.40
2023-01-04T08:17:02.817Z,6.40
2023-01-04T08:19:26.448Z,6.40
2023-01-04T08:21:50.637Z,6.50
2023-01-04T08:24:18.508Z,6.50
2023-01-04T08:26:42.155Z,6.50
2023-01-04T08:29:05.740Z,6.50
2023-01-04T08:31:32.636Z,6.60
2023-01-04T08:33:57.381Z,6.60
2023-01-04T08:36:27.091Z,6.60
2023-01-04T08:39:00.099Z,6.60
2023-01-04T08:44:10.668Z,6.70
2023-01-04T08:46:34.208Z,6.70
2023-01-04T08:48:57.793Z,6.70
2023-01-04T08:51:21.347Z,6.70
2023-01-04T08:53:46.030Z,6.70
2023-01-04T08:56:10.441Z,6.80
2023-01-04T08:58:36.795Z,6.80
2023-01-04T09:01:02.484Z,6.80
2023-01-04T09:03:26.146Z,6.80
2023-01-04T09:05:49.702Z,6.80
2023-01-04T09:08:13.356Z,6.80
2023-01-04T09:10:39.393Z,6.90
2023-01-04T09:13:03.005Z,6.90
2023-01-04T09:15:27.925Z,7.00
2023-01-04T09:18:29.525Z,7.00
2023-01-04T09:20:35.701Z,7.00
2023-01-04T09:22:59.826Z,7.00
2023-01-04T09:25:23.402Z,7.00
2023-01-04T09:27:46.943Z,7.10
2023-01-04T09:30:12.697Z,7.10
2023-01-04T09:32:38.056Z,7.10
2023-01-04T09:35:01.734Z,7.10
2023-01-04T09:37:25.320Z,7.20
2023-01-04T09:39:48.923Z,7.20
2023-01-04T09:42:22.894Z,7.20
2023-01-04T09:47:43.748Z,7.20
2023-01-04T09:50:15.018Z,7.20
2023-01-04T09:52:50.845Z,7.30
2023-01-04T09:55:37.987Z,7.30
2023-01-04T09:58:09.458Z,7.20
2023-01-04T10:00:43.383Z,7.30
2023-01-04T10:03:16.986Z,7.20
2023-01-04T10:05:42.193Z,7.30
2023-01-04T10:08:16.458Z,7.30
2023-01-04T10:10:53.455Z,7.30
2023-01-04T10:13:34.194Z,7.40
2023-01-04T10:16:09.108Z,7.40
2023-01-04T10:21:37.091Z,7.40
2023-01-04T10:24:17.337Z,7.50
2023-01-04T10:26:48.137Z,7.50
2023-01-04T10:29:39.019Z,7.50
2023-01-04T10:32:06.635Z,7.50
2023-01-04T10:34:37.499Z,7.50
2023-01-04T10:37:06.259Z,7.60
2023-01-04T10:39:33.852Z,7.50
2023-01-04T10:42:01.109Z,7.60
2023-01-04T10:44:33.401Z,7.60
2023-01-04T10:47:08.569Z,7.60
2023-01-04T10:49:44.000Z,7.60
2023-01-04T10:52:14.208Z,7.60
2023-01-04T10:54:44.057Z,7.60
2023-01-04T10:57:15.348Z,7.70
2023-01-04T10:59:47.241Z,7.60
2023-01-04T11:02:21.079Z,7.70
2023-01-04T11:04:54.044Z,7.70
2023-01-04T11:07:22.245Z,7.70
2023-01-04T11:09:52.273Z,7.80
2023-01-04T11:12:19.220Z,7.80
2023-01-04T11:14:43.124Z,7.80
2023-01-04T11:17:10.148Z,7.80
2023-01-04T11:19:35.127Z,7.80
2023-01-04T11:22:06.069Z,7.80
2023-01-04T11:24:33.705Z,7.90
2023-01-04T11:26:59.904Z,7.90
2023-01-04T11:29:34.240Z,7.90
2023-01-04T11:32:02.497Z,7.90
2023-01-04T11:34:49.857Z,7.90
2023-01-04T11:37:33.503Z,8.00
2023-01-04T11:40:28.485Z,8.00
2023-01-04T11:42:54.576Z,8.00
2023-01-04T11:45:25.684Z,8.00
2023-01-04T11:47:52.100Z,8.00
2023-01-04T11:50:41.112Z,8.10
2023-01-04T11:53:25.766Z,8.10
2023-01-04T11:55:49.379Z,8.10
2023-01-04T11:58:15.664Z,8.10
2023-01-04T12:00:39.886Z,8.10
2023-01-04T12:03:15.147Z,8.10
2023-01-04T12:05:39.381Z,8.10
2023-01-04T12:08:03.003Z,8.10
2023-01-04T12:10:29.979Z,8.20
2023-01-04T12:12:53.724Z,8.20
2023-01-04T12:15:23.027Z,8.20
2023-01-04T12:17:56.082Z,8.20
2023-01-04T12:20:21.808Z,8.30
2023-01-04T12:22:45.380Z,8.20
2023-01-04T12:25:26.953Z,8.30
2023-01-04T12:27:53.207Z,8.30
2023-01-04T12:30:39.995Z,8.30
2023-01-04T12:33:40.907Z,8.30
2023-01-04T12:36:08.136Z,8.30
2023-01-04T12:39:06.255Z,8.30
2023-01-04T12:42:21.958Z,8.40
2023-01-04T12:45:18.803Z,8.40
2023-01-04T12:48:01.918Z,8.40
2023-01-04T12:50:29.201Z,8.40
2023-01-04T12:55:59.536Z,8.40
2023-01-04T13:02:20.639Z,8.50
2023-01-04T13:04:45.123Z,8.50
2023-01-04T13:07:17.387Z,8.50
2023-01-04T13:09:48.569Z,8.50
2023-01-04T13:12:54.841Z,8.50
2023-01-04T13:15:24.893Z,8.40
2023-01-04T13:17:50.079Z,8.50
2023-01-04T13:20:22.869Z,8.40
2023-01-04T13:22:53.801Z,8.50
2023-01-04T13:25:19.661Z,8.50
2023-01-04T13:27:58.249Z,8.60
2023-01-04T13:30:36.358Z,8.50
2023-01-04T13:33:26.469Z,8.50
2023-01-04T13:36:03.864Z,8.60
2023-01-04T13:38:27.567Z,8.60
2023-01-04T13:40:51.248Z,8.60
2023-01-04T13:43:42.688Z,8.60
2023-01-04T13:46:17.243Z,8.60
2023-01-04T13:48:45.397Z,8.70
2023-01-04T13:51:18.220Z,8.70
2023-01-04T13:53:43.838Z,8.70
2023-01-04T13:56:15.851Z,8.70
2023-01-04T13:58:39.450Z,8.70
2023-01-04T14:01:08.614Z,8.70
2023-01-04T14:03:38.995Z,8.70
2023-01-04T14:06:19.701Z,8.70
2023-01-04T14:08:51.719Z,8.80
2023-01-04T14:11:41.565Z,8.80
2023-01-04T14:14:13.875Z,8.80
2023-01-04T14:16:37.553Z,8.80
2023-01-04T14:19:44.179Z,8.80
2023-01-04T14:22:41.133Z,8.80
2023-01-04T14:25:56.155Z,8.80
2023-01-04T14:28:38.859Z,8.80
2023-01-04T14:31:38.026Z,8.80
2023-01-04T14:34:15.673Z,8.80
2023-01-04T14:36:42.360Z,8.90
2023-01-04T14:39:31.486Z,8.90
2023-01-04T14:42:00.312Z,8.90
2023-01-04T14:44:28.296Z,8.90
2023-01-04T14:46:54.850Z,8.90
2023-01-04T14:49:19.939Z,9.00
2023-01-04T14:51:48.601Z,9.00
2023-01-04T14:54:18.895Z,9.00
2023-01-04T14:56:45.984Z,9.10
2023-01-04T14:59:10.316Z,9.10
2023-01-04T15:01:34.202Z,9.10
2023-01-04T15:03:58.102Z,9.10
2023-01-04T15:06:21.917Z,9.10
2023-01-04T15:08:47.020Z,9.20
2023-01-04T15:11:13.450Z,9.20
2023-01-04T15:13:39.768Z,9.20
2023-01-04T15:16:03.808Z,9.20
2023-01-04T15:18:28.060Z,9.20
2023-01-04T15:20:51.711Z,9.30
2023-01-04T15:23:15.249Z,9.30
2023-01-04T15:25:42.047Z,9.30
2023-01-04T15:28:05.886Z,9.30
2023-01-04T15:30:29.529Z,9.30
2023-01-04T15:32:53.076Z,9.30
2023-01-04T15:35:17.237Z,9.30
2023-01-04T15:37:40.758Z,9.30
2023-01-04T15:40:05.018Z,9.30
2023-01-04T15:42:49.433Z,9.30
2023-01-04T15:45:13.074Z,9.30
2023-01-04T15:47:36.620Z,9.30
2023-01-04T15:50:00.199Z,9.30
2023-01-04T15:52:24.235Z,9.30
2023-01-04T15:54:47.815Z,9.30
2023-01-04T15:57:11.342Z,9.30
2023-01-04T15:59:36.589Z,9.30
2023-01-04T16:02:00.142Z,9.30
2023-01-04T16:04:23.801Z,9.30
2023-01-04T16:06:47.331Z,9.40
2023-01-04T16:09:11.014Z,9.40
2023-01-04T16:11:34.512Z,9.40
2023-01-04T16:13:58.244Z,9.40
2023-01-04T16:16:27.574Z,9.40
2023-01-04T16:18:53.525Z,9.40
2023-01-04T16:21:18.104Z,9.40
2023-01-04T16:23:41.741Z,9.40
2023-01-04T16:26:08.155Z,9.40
2023-01-04T16:28:31.702Z,9.40
2023-01-04T16:30:57.066Z,9.40
2023-01-04T16:33:22.021Z,9.40
2023-01-04T16:35:45.554Z,9.40
2023-01-04T16:38:09.573Z,9.40
2023-01-04T16:40:33.071Z,9.40
2023-01-04T16:42:56.634Z,9.50
2023-01-04T16:45:20.330Z,9.50
2023-01-04T16:47:46.081Z,9.50
2023-01-04T16:50:13.548Z,9.50
2023-01-04T16:52:37.337Z,9.50
2023-01-04T16:55:00.853Z,9.50
2023-01-04T16:57:24.793Z,9.50
2023-01-04T16:59:49.108Z,9.50
2023-01-04T17:02:13.410Z,9.60
2023-01-04T17:04:37.252Z,9.60
2023-01-04T17:07:02.240Z,9.60
2023-01-04T17:09:25.979Z,9.70
2023-01-04T17:14:42.981Z,9.70
2023-01-04T17:17:06.571Z,9.80
2023-01-04T17:19:30.159Z,9.80
2023-01-04T17:21:53.744Z,9.80
2023-01-04T17:24:19.070Z,9.80
2023-01-04T17:26:43.575Z,9.90
2023-01-04T17:29:07.355Z,9.90
2023-01-04T17:31:34.720Z,9.90
2023-01-04T17:33:58.331Z,10.00
2023-01-04T17:36:23.274Z,10.00
2023-01-04T17:38:47.177Z,10.00
2023-01-04T17:41:14.648Z,10.10
2023-01-04T17:43:39.750Z,10.10
2023-01-04T17:46:03.920Z,10.10
2023-01-04T17:48:27.555Z,10.20
2023-01-04T17:50:51.063Z,10.20
2023-01-04T17:53:14.639Z,10.20
2023-01-04T17:55:38.147Z,10.20
2023-01-04T17:58:06.118Z,10.20
2023-01-04T18:00:33.458Z,10.20
2023-01-04T18:02:57.062Z,10.30
2023-01-04T18:05:20.695Z,10.30
2023-01-04T18:07:44.270Z,10.30
2023-01-04T18:10:20.541Z,10.30
2023-01-04T18:12:50.452Z,10.30
2023-01-04T18:15:15.429Z,10.40
2023-01-04T18:17:39.295Z,10.40
2023-01-04T18:20:02.843Z,10.40
2023-01-04T18:22:26.472Z,10.40
2023-01-04T18:24:50.034Z,10.40
2023-01-04T18:27:24.557Z,10.40
2023-01-04T18:29:49.463Z,10.40
2023-01-04T18:32:14.381Z,10.40
2023-01-04T18:34:37.991Z,10.40
2023-01-04T18:37:01.529Z,10.50
2023-01-04T18:39:25.415Z,10.50
2023-01-04T18:41:48.940Z,10.50
2023-01-04T18:44:32.107Z,10.50
2023-01-04T18:46:56.324Z,10.50
2023-01-04T18:49:21.233Z,10.50
2023-01-04T18:51:44.814Z,10.60
2023-01-04T18:54:08.309Z,10.60
2023-01-04T18:56:31.949Z,10.60
2023-01-04T18:58:55.464Z,10.60
2023-01-04T19:01:21.679Z,10.60
2023-01-04T19:03:48.992Z,10.60
2023-01-04T19:06:16.823Z,10.60
2023-01-04T19:08:40.918Z,10.60
2023-01-04T19:11:04.771Z,10.60
2023-01-04T19:13:28.314Z,10.60
2023-01-04T19:15:51.915Z,10.60
2023-01-04T19:18:16.676Z,10.60
2023-01-04T19:20:40.819Z,10.60
2023-01-04T19:23:05.785Z,10.60
2023-01-04T19:25:29.364Z,10.60
2023-01-04T19:27:52.876Z,10.60
2023-01-04T19:30:17.035Z,10.60
2023-01-04T19:32:40.536Z,10.60
2023-01-04T19:35:04.190Z,10.60
2023-01-04T19:37:27.712Z,10.60
2023-01-04T19:39:52.657Z,10.70
2023-01-04T19:42:16.217Z,10.70
2023-01-04T19:44:39.917Z,10.70
2023-01-04T19:47:03.472Z,10.60
2023-01-04T19:49:27.220Z,10.60
2023-01-04T19:51:51.754Z,10.60
2023-01-04T19:54:21.617Z,10.60
2023-01-04T19:56:49.821Z,10.60
2023-01-04T19:59:13.341Z,10.60
2023-01-04T20:01:37.237Z,10.60
2023-01-04T20:04:00.818Z,10.60
2023-01-04T20:06:24.565Z,10.60
2023-01-04T20:08:48.173Z,10.60
2023-01-04T20:11:12.296Z,10.60
2023-01-04T20:13:38.794Z,10.60
2023-01-04T20:16:04.724Z,10.60
2023-01-04T20:18:28.776Z,10.60
2023-01-04T20:20:53.187Z,10.60
2023-01-04T20:23:17.521Z,10.50
2023-01-04T20:25:41.922Z,10.50
2023-01-04T20:28:05.563Z,10.50
2023-01-04T20:30:30.568Z,10.50
2023-01-04T20:32:54.176Z,10.50
2023-01-04T20:35:19.986Z,10.50
2023-01-04T20:37:43.591Z,10.50
2023-01-04T20:40:09.237Z,10.50
2023-01-04T20:42:50.266Z,10.50
2023-01-04T20:45:13.836Z,10.50
2023-01-04T20:47:38.765Z,10.60
2023-01-04T20:50:02.315Z,10.60
2023-01-04T20:52:25.877Z,10.50
2023-01-04T20:54:50.704Z,10.50
2023-01-04T20:57:14.207Z,10.60
2023-01-04T20:59:37.812Z,10.60
2023-01-04T21:02:03.320Z,10.60
2023-01-04T21:04:28.404Z,10.50
2023-01-04T21:06:51.973Z,10.50
2023-01-04T21:09:15.604Z,10.50
2023-01-04T21:11:39.118Z,10.50
2023-01-04T21:14:03.138Z,10.50
2023-01-04T21:16:26.671Z,10.50
2023-01-04T21:18:50.548Z,10.60
2023-01-04T21:21:18.520Z,10.50
2023-01-04T21:23:43.365Z,10.60
2023-01-04T21:26:08.006Z,10.50
2023-01-04T21:28:31.624Z,10.50
2023-01-04T21:30:55.158Z,10.50
2023-01-04T21:33:19.469Z,10.50
2023-01-04T21:35:44.132Z,10.50
2023-01-04T21:38:10.520Z,10.40
2023-01-04T21:40:34.631Z,10.40
2023-01-04T21:42:58.558Z,10.50
2023-01-04T21:45:22.106Z,10.50
2023-01-04T21:47:45.677Z,10.50
2023-01-04T21:50:16.608Z,10.50
2023-01-04T21:52:40.641Z,10.50
2023-01-04T21:55:06.686Z,10.50
2023-01-04T21:57:30.498Z,10.50
2023-01-04T21:59:54.046Z,10.50
2023-01-04T22:02:19.912Z,10.50
2023-01-04T22:04:44.096Z,10.50
2023-01-04T22:07:07.658Z,10.40
2023-01-04T22:09:31.165Z,10.50
2023-01-04T22:11:56.154Z,10.40
2023-01-04T22:14:20.147Z,10.40
2023-01-04T22:16:43.788Z,10.40
2023-01-04T22:19:07.436Z,10.40
2023-01-04T22:21:30.995Z,10.40
2023-01-04T22:23:55.543Z,10.40
2023-01-04T22:26:19.269Z,10.40
2023-01-04T22:28:44.243Z,10.40
2023-01-04T22:31:10.435Z,10.40
2023-01-04T22:33:35.035Z,10.40
2023-01-04T22:35:58.632Z,10.40
2023-01-04T22:38:22.140Z,10.30
2023-01-04T22:40:45.855Z,10.30
2023-01-04T22:43:09.721Z,10.20
2023-01-04T22:45:34.853Z,10.20
2023-01-04T22:47:58.501Z,10.20
2023-01-04T22:50:22.261Z,10.20
2023-01-04T22:52:50.754Z,10.20
2023-01-04T22:55:14.740Z,10.30
2023-01-04T22:57:38.293Z,10.20
2023-01-04T23:00:01.872Z,10.30
2023-01-04T23:02:26.918Z,10.30
2023-01-04T23:04:50.564Z,10.30
2023-01-04T23:07:14.074Z,10.30
2023-01-04T23:09:37.678Z,10.30
2023-01-04T23:12:01.262Z,10.20
2023-01-04T23:14:24.951Z,10.30
2023-01-04T23:16:48.649Z,10.30
2023-01-04T23:19:15.094Z,10.20
2023-01-04T23:21:39.202Z,10.30
2023-01-04T23:24:03.847Z,10.30
2023-01-04T23:26:29.700Z,10.30
2023-01-04T23:28:53.855Z,10.30
2023-01-04T23:31:20.491Z,10.30
2023-01-04T23:33:44.241Z,10.30
2023-01-04T23:36:12.184Z,10.30
2023-01-04T23:38:36.144Z,10.30
2023-01-04T23:40:59.663Z,10.30
2023-01-04T23:43:23.233Z,10.30
2023-01-04T23:45:46.767Z,10.30
2023-01-04T23:48:10.294Z,10.30
2023-01-04T23:50:33.795Z,10.20
2023-01-04T23:52:58.802Z,10.20
2023-01-04T23:55:22.315Z,10.20
2023-01-04T23:57:45.857Z,10.20
